sensor_id;sensor_type;location;lat;lon;timestamp;pressure;altitude;pressure_sealevel;temperature;humidity
73870;BME280;64924;42.140;24.762;2024-02-28T00:01:02;100172.97;;;9.42;67.92
73870;BME280;64924;42.140;24.762;2024-02-28T00:03:27;100157.38;;;9.35;68.19
73870;BME280;64924;42.140;24.762;2024-02-28T00:05:53;100167.63;;;9.25;68.32
73870;BME280;64924;42.140;24.762;2024-02-28T00:08:18;100171.78;;;9.44;67.91
73870;BME280;64924;42.140;24.762;2024-02-28T00:10:45;100179.06;;;9.44;68.01
73870;BME280;64924;42.140;24.762;2024-02-28T00:13:11;100147.25;;;9.29;67.79
73870;BME280;64924;42.140;24.762;2024-02-28T00:15:36;100187.84;;;9.54;67.73
73870;BME280;64924;42.140;24.762;2024-02-28T00:18:02;100153.00;;;9.34;67.83
73870;BME280;64924;42.140;24.762;2024-02-28T00:20:28;100182.25;;;9.55;67.43
73870;BME280;64924;42.140;24.762;2024-02-28T00:22:55;100184.28;;;9.53;67.88
73870;BME280;64924;42.140;24.762;2024-02-28T00:25:20;100171.78;;;9.44;67.62
73870;BME280;64924;42.140;24.762;2024-02-28T00:27:45;100177.88;;;9.38;68.11
73870;BME280;64924;42.140;24.762;2024-02-28T00:30:11;100185.00;;;9.39;68.06
73870;BME280;64924;42.140;24.762;2024-02-28T00:32:37;100163.75;;;9.20;68.18
73870;BME280;64924;42.140;24.762;2024-02-28T00:35:03;100192.31;;;9.30;68.54
73870;BME280;64924;42.140;24.762;2024-02-28T00:37:29;100192.97;;;9.41;68.31
73870;BME280;64924;42.140;24.762;2024-02-28T00:39:54;100183.28;;;9.46;67.67
73870;BME280;64924;42.140;24.762;2024-02-28T00:42:21;100195.97;;;9.54;67.52
73870;BME280;64924;42.140;24.762;2024-02-28T00:44:47;100165.19;;;9.30;67.76
73870;BME280;64924;42.140;24.762;2024-02-28T00:47:12;100188.41;;;9.33;68.05
73870;BME280;64924;42.140;24.762;2024-02-28T00:49:37;100149.34;;;9.19;67.72
73870;BME280;64924;42.140;24.762;2024-02-28T00:52:03;100178.56;;;9.40;67.59
73870;BME280;64924;42.140;24.762;2024-02-28T00:54:29;100193.94;;;9.56;67.53
73870;BME280;64924;42.140;24.762;2024-02-28T00:56:54;100197.81;;;9.61;67.15
73870;BME280;64924;42.140;24.762;2024-02-28T00:59:20;100188.47;;;9.64;66.87
73870;BME280;64924;42.140;24.762;2024-02-28T01:01:45;100194.59;;;9.58;66.91
73870;BME280;64924;42.140;24.762;2024-02-28T01:04:11;100189.53;;;9.55;66.87
73870;BME280;64924;42.140;24.762;2024-02-28T01:06:37;100199.06;;;9.43;67.59
73870;BME280;64924;42.140;24.762;2024-02-28T01:09:03;100192.63;;;9.44;67.55
73870;BME280;64924;42.140;24.762;2024-02-28T01:11:30;100185.81;;;9.48;67.32
73870;BME280;64924;42.140;24.762;2024-02-28T01:13:55;100178.72;;;9.47;67.23
73870;BME280;64924;42.140;24.762;2024-02-28T01:16:21;100196.72;;;9.31;67.73
73870;BME280;64924;42.140;24.762;2024-02-28T01:18:46;100195.78;;;9.16;68.33
73870;BME280;64924;42.140;24.762;2024-02-28T01:21:12;100190.00;;;9.19;68.39
73870;BME280;64924;42.140;24.762;2024-02-28T01:23:37;100193.03;;;9.24;68.07
73870;BME280;64924;42.140;24.762;2024-02-28T01:26:03;100195.78;;;9.16;68.23
73870;BME280;64924;42.140;24.762;2024-02-28T01:28:30;100182.06;;;9.10;68.45
73870;BME280;64924;42.140;24.762;2024-02-28T01:30:55;100185.97;;;9.07;68.44
73870;BME280;64924;42.140;24.762;2024-02-28T01:33:21;100184.09;;;9.08;68.40
73870;BME280;64924;42.140;24.762;2024-02-28T01:35:47;100189.19;;;9.02;68.48
73870;BME280;64924;42.140;24.762;2024-02-28T01:38:13;100189.88;;;8.96;68.64
73870;BME280;64924;42.140;24.762;2024-02-28T01:40:38;100182.75;;;8.95;68.53
73870;BME280;64924;42.140;24.762;2024-02-28T01:43:07;100190.88;;;9.03;68.42
73870;BME280;64924;42.140;24.762;2024-02-28T01:45:32;100203.75;;;9.10;68.40
73870;BME280;64924;42.140;24.762;2024-02-28T01:47:58;100203.41;;;9.04;68.32
73870;BME280;64924;42.140;24.762;2024-02-28T01:50:24;100208.50;;;8.91;68.59
73870;BME280;64924;42.140;24.762;2024-02-28T01:52:49;100150.16;;;8.56;68.90
73870;BME280;64924;42.140;24.762;2024-02-28T01:55:15;100172.16;;;8.61;68.94
73870;BME280;64924;42.140;24.762;2024-02-28T01:57:40;100201.59;;;8.81;68.94
73870;BME280;64924;42.140;24.762;2024-02-28T02:00:07;100161.34;;;8.53;68.90
73870;BME280;64924;42.140;24.762;2024-02-28T02:02:35;100214.97;;;8.90;68.42
73870;BME280;64924;42.140;24.762;2024-02-28T02:05:00;100205.66;;;8.85;68.57
73870;BME280;64924;42.140;24.762;2024-02-28T02:07:26;100188.75;;;8.75;68.49
73870;BME280;64924;42.140;24.762;2024-02-28T02:09:52;100207.03;;;8.64;69.08
73870;BME280;64924;42.140;24.762;2024-02-28T02:12:18;100219.22;;;8.60;69.63
73870;BME280;64924;42.140;24.762;2024-02-28T02:14:50;100215.47;;;8.69;69.20
73870;BME280;64924;42.140;24.762;2024-02-28T02:17:15;100218.53;;;8.75;69.31
73870;BME280;64924;42.140;24.762;2024-02-28T02:19:41;100216.50;;;8.85;68.83
73870;BME280;64924;42.140;24.762;2024-02-28T02:22:08;100210.06;;;8.86;68.42
73870;BME280;64924;42.140;24.762;2024-02-28T02:24:35;100220.22;;;8.84;68.06
73870;BME280;64924;42.140;24.762;2024-02-28T02:27:01;100232.06;;;8.91;68.14
73870;BME280;64924;42.140;24.762;2024-02-28T02:29:27;100187.03;;;8.74;67.77
73870;BME280;64924;42.140;24.762;2024-02-28T02:31:54;100241.19;;;9.06;67.53
73870;BME280;64924;42.140;24.762;2024-02-28T02:34:19;100245.25;;;9.10;67.55
73870;BME280;64924;42.140;24.762;2024-02-28T02:36:45;100238.66;;;9.04;67.27
73870;BME280;64924;42.140;24.762;2024-02-28T02:39:10;100249.50;;;9.04;67.77
73870;BME280;64924;42.140;24.762;2024-02-28T02:41:36;100252.88;;;8.98;67.52
73870;BME280;64924;42.140;24.762;2024-02-28T02:44:01;100253.38;;;9.02;67.53
73870;BME280;64924;42.140;24.762;2024-02-28T02:46:26;100245.44;;;9.00;67.57
73870;BME280;64924;42.140;24.762;2024-02-28T02:48:52;100252.69;;;9.08;67.25
73870;BME280;64924;42.140;24.762;2024-02-28T02:51:21;100258.13;;;9.24;67.01
73870;BME280;64924;42.140;24.762;2024-02-28T02:53:46;100260.81;;;9.24;66.99
73870;BME280;64924;42.140;24.762;2024-02-28T02:56:12;100258.41;;;9.29;66.18
73870;BME280;64924;42.140;24.762;2024-02-28T02:58:37;100265.34;;;9.32;66.13
73870;BME280;64924;42.140;24.762;2024-02-28T03:01:03;100231.19;;;8.98;67.05
73870;BME280;64924;42.140;24.762;2024-02-28T03:03:28;100224.09;;;8.97;66.69
73870;BME280;64924;42.140;24.762;2024-02-28T03:05:54;100255.41;;;9.08;67.16
73870;BME280;64924;42.140;24.762;2024-02-28T03:08:19;100260.50;;;9.11;67.22
73870;BME280;64924;42.140;24.762;2024-02-28T03:10:45;100243.91;;;9.06;67.16
73870;BME280;64924;42.140;24.762;2024-02-28T03:13:10;100256.59;;;9.14;67.02
73870;BME280;64924;42.140;24.762;2024-02-28T03:15:36;100263.03;;;9.13;66.87
73870;BME280;64924;42.140;24.762;2024-02-28T03:18:01;100241.34;;;9.13;66.59
73870;BME280;64924;42.140;24.762;2024-02-28T03:20:27;100217.69;;;8.90;66.69
73870;BME280;64924;42.140;24.762;2024-02-28T03:22:52;100255.75;;;8.97;67.27
73870;BME280;64924;42.140;24.762;2024-02-28T03:25:18;100219.56;;;8.82;67.36
73870;BME280;64924;42.140;24.762;2024-02-28T03:27:43;100206.69;;;8.84;67.04
73870;BME280;64924;42.140;24.762;2024-02-28T03:30:09;100264.22;;;9.18;66.54
73870;BME280;64924;42.140;24.762;2024-02-28T03:32:35;100256.44;;;9.15;66.71
73870;BME280;64924;42.140;24.762;2024-02-28T03:35:00;100256.78;;;9.04;67.37
73870;BME280;64924;42.140;24.762;2024-02-28T03:37:25;100250.66;;;9.10;67.13
73870;BME280;64924;42.140;24.762;2024-02-28T03:39:51;100259.31;;;9.05;67.37
73870;BME280;64924;42.140;24.762;2024-02-28T03:42:17;100259.31;;;9.05;67.28
73870;BME280;64924;42.140;24.762;2024-02-28T03:44:42;100243.72;;;9.08;67.13
73870;BME280;64924;42.140;24.762;2024-02-28T03:47:08;100249.31;;;9.06;66.63
73870;BME280;64924;42.140;24.762;2024-02-28T03:49:34;100250.00;;;9.00;67.27
73870;BME280;64924;42.140;24.762;2024-02-28T03:52:00;100219.72;;;8.72;67.76
73870;BME280;64924;42.140;24.762;2024-02-28T03:54:26;100256.25;;;9.00;67.45
73870;BME280;64924;42.140;24.762;2024-02-28T03:56:52;100256.44;;;8.99;67.52
73870;BME280;64924;42.140;24.762;2024-02-28T03:59:18;100262.19;;;9.04;67.26
73870;BME280;64924;42.140;24.762;2024-02-28T04:01:43;100256.09;;;9.02;67.25
73870;BME280;64924;42.140;24.762;2024-02-28T04:04:08;100267.63;;;8.96;67.90
73870;BME280;64924;42.140;24.762;2024-02-28T04:06:34;100267.66;;;8.88;67.77
73870;BME280;64924;42.140;24.762;2024-02-28T04:08:59;100244.94;;;8.81;67.47
73870;BME280;64924;42.140;24.762;2024-02-28T04:11:25;100232.94;;;8.75;67.43
73870;BME280;64924;42.140;24.762;2024-02-28T04:13:51;100265.94;;;8.87;67.80
73870;BME280;64924;42.140;24.762;2024-02-28T04:16:16;100267.63;;;8.96;67.55
73870;BME280;64924;42.140;24.762;2024-02-28T04:18:42;100273.88;;;8.96;67.24
73870;BME280;64924;42.140;24.762;2024-02-28T04:21:08;100283.69;;;9.14;67.21
73870;BME280;64924;42.140;24.762;2024-02-28T04:23:34;100267.78;;;9.19;67.00
73870;BME280;64924;42.140;24.762;2024-02-28T04:25:59;100278.25;;;9.30;66.65
73870;BME280;64924;42.140;24.762;2024-02-28T04:28:24;100282.47;;;9.41;66.13
73870;BME280;64924;42.140;24.762;2024-02-28T04:30:50;100277.03;;;9.49;66.27
73870;BME280;64924;42.140;24.762;2024-02-28T04:33:16;100244.50;;;9.32;65.65
73870;BME280;64924;42.140;24.762;2024-02-28T04:35:41;100255.66;;;9.46;65.01
73870;BME280;64924;42.140;24.762;2024-02-28T04:38:07;100275.63;;;9.61;65.10
73870;BME280;64924;42.140;24.762;2024-02-28T04:40:32;100263.47;;;9.41;65.49
73870;BME280;64924;42.140;24.762;2024-02-28T04:42:58;100273.13;;;9.43;65.46
73870;BME280;64924;42.140;24.762;2024-02-28T04:45:23;100292.28;;;9.50;65.78
73870;BME280;64924;42.140;24.762;2024-02-28T04:47:49;100288.38;;;9.52;65.37
73870;BME280;64924;42.140;24.762;2024-02-28T04:50:16;100278.00;;;9.64;64.76
73870;BME280;64924;42.140;24.762;2024-02-28T04:52:42;100282.09;;;9.52;65.04
73870;BME280;64924;42.140;24.762;2024-02-28T04:55:08;100282.44;;;9.57;65.48
73870;BME280;64924;42.140;24.762;2024-02-28T04:57:33;100295.31;;;9.63;65.05
73870;BME280;64924;42.140;24.762;2024-02-28T04:59:58;100287.34;;;9.61;65.14
73870;BME280;64924;42.140;24.762;2024-02-28T05:02:24;100248.06;;;9.41;64.82
73870;BME280;64924;42.140;24.762;2024-02-28T05:04:51;100282.41;;;9.65;64.65
73870;BME280;64924;42.140;24.762;2024-02-28T05:07:16;100287.09;;;9.71;64.34
73870;BME280;64924;42.140;24.762;2024-02-28T05:09:42;100238.72;;;9.44;64.22
73870;BME280;64924;42.140;24.762;2024-02-28T05:12:07;100283.88;;;9.76;64.10
73870;BME280;64924;42.140;24.762;2024-02-28T05:14:33;100280.50;;;9.73;64.48
73870;BME280;64924;42.140;24.762;2024-02-28T05:16:58;100284.69;;;9.84;63.94
73870;BME280;64924;42.140;24.762;2024-02-28T05:19:24;100289.19;;;9.61;64.12
73870;BME280;64924;42.140;24.762;2024-02-28T05:21:49;100244.91;;;9.13;64.56
73870;BME280;64924;42.140;24.762;2024-02-28T05:24:15;100296.91;;;9.17;64.96
73870;BME280;64924;42.140;24.762;2024-02-28T05:26:40;100267.97;;;8.85;65.55
73870;BME280;64924;42.140;24.762;2024-02-28T05:29:06;100309.63;;;9.08;66.11
73870;BME280;64924;42.140;24.762;2024-02-28T05:31:32;100269.66;;;9.02;65.19
73870;BME280;64924;42.140;24.762;2024-02-28T05:33:58;100263.06;;;8.88;65.28
73870;BME280;64924;42.140;24.762;2024-02-28T05:36:26;100321.81;;;9.20;65.18
73870;BME280;64924;42.140;24.762;2024-02-28T05:38:52;100278.66;;;8.86;65.34
73870;BME280;64924;42.140;24.762;2024-02-28T05:41:19;100327.91;;;9.06;65.61
73870;BME280;64924;42.140;24.762;2024-02-28T05:43:45;100324.19;;;9.23;65.05
73870;BME280;64924;42.140;24.762;2024-02-28T05:46:14;100332.63;;;9.36;64.96
73870;BME280;64924;42.140;24.762;2024-02-28T05:48:44;100307.22;;;9.37;64.11
73870;BME280;64924;42.140;24.762;2024-02-28T05:51:12;100327.53;;;9.58;64.42
73870;BME280;64924;42.140;24.762;2024-02-28T05:53:39;100333.66;;;9.44;64.70
73870;BME280;64924;42.140;24.762;2024-02-28T05:56:06;100344.00;;;9.40;64.48
73870;BME280;64924;42.140;24.762;2024-02-28T05:58:41;100337.03;;;9.54;64.28
73870;BME280;64924;42.140;24.762;2024-02-28T06:01:08;100339.91;;;9.52;64.39
73870;BME280;64924;42.140;24.762;2024-02-28T06:03:34;100292.00;;;9.20;64.13
73870;BME280;64924;42.140;24.762;2024-02-28T06:05:59;100353.63;;;9.59;63.79
73870;BME280;64924;42.140;24.762;2024-02-28T06:08:25;100353.97;;;9.48;64.28
73870;BME280;64924;42.140;24.762;2024-02-28T06:10:50;100312.47;;;9.39;63.87
73870;BME280;64924;42.140;24.762;2024-02-28T06:13:18;100358.38;;;9.65;63.54
73870;BME280;64924;42.140;24.762;2024-02-28T06:15:43;100352.78;;;9.50;64.01
73870;BME280;64924;42.140;24.762;2024-02-28T06:18:08;100356.69;;;9.48;64.47
73870;BME280;64924;42.140;24.762;2024-02-28T06:20:34;100354.31;;;9.53;64.27
73870;BME280;64924;42.140;24.762;2024-02-28T06:23:00;100351.25;;;9.64;64.08
73870;BME280;64924;42.140;24.762;2024-02-28T06:25:25;100363.06;;;9.87;63.62
73870;BME280;64924;42.140;24.762;2024-02-28T06:27:52;100359.25;;;10.04;62.76
73870;BME280;64924;42.140;24.762;2024-02-28T06:30:18;100351.94;;;10.13;62.74
73870;BME280;64924;42.140;24.762;2024-02-28T06:32:44;100363.63;;;10.22;62.50
73870;BME280;64924;42.140;24.762;2024-02-28T06:35:09;100370.28;;;10.50;61.44
73870;BME280;64924;42.140;24.762;2024-02-28T06:37:35;100366.53;;;10.51;61.80
73870;BME280;64924;42.140;24.762;2024-02-28T06:40:02;100366.81;;;10.64;62.12
73870;BME280;64924;42.140;24.762;2024-02-28T06:42:29;100332.47;;;10.71;61.54
73870;BME280;64924;42.140;24.762;2024-02-28T06:44:55;100318.13;;;11.00;60.94
73870;BME280;64924;42.140;24.762;2024-02-28T06:47:21;100356.25;;;11.53;59.89
73870;BME280;64924;42.140;24.762;2024-02-28T06:49:46;100365.69;;;11.94;58.48
73870;BME280;64924;42.140;24.762;2024-02-28T06:52:12;100380.25;;;12.31;58.13
73870;BME280;64924;42.140;24.762;2024-02-28T06:54:37;100364.09;;;12.65;56.44
73870;BME280;64924;42.140;24.762;2024-02-28T06:57:03;100380.44;;;12.80;56.50
73870;BME280;64924;42.140;24.762;2024-02-28T06:59:28;100363.19;;;12.94;55.33
73870;BME280;64924;42.140;24.762;2024-02-28T07:01:54;100365.44;;;13.12;54.94
73870;BME280;64924;42.140;24.762;2024-02-28T07:04:20;100365.84;;;13.09;54.75
73870;BME280;64924;42.140;24.762;2024-02-28T07:06:45;100375.28;;;12.70;55.48
73870;BME280;64924;42.140;24.762;2024-02-28T07:09:11;100370.56;;;12.43;56.34
73870;BME280;64924;42.140;24.762;2024-02-28T07:11:37;100331.47;;;11.85;57.38
73870;BME280;64924;42.140;24.762;2024-02-28T07:14:06;100383.63;;;11.36;59.46
73870;BME280;64924;42.140;24.762;2024-02-28T07:16:32;100389.25;;;11.35;59.57
73870;BME280;64924;42.140;24.762;2024-02-28T07:19:00;100384.75;;;11.42;59.55
73870;BME280;64924;42.140;24.762;2024-02-28T07:21:26;100394.34;;;11.53;59.39
73870;BME280;64924;42.140;24.762;2024-02-28T07:23:51;100380.66;;;11.84;58.30
73870;BME280;64924;42.140;24.762;2024-02-28T07:26:17;100392.56;;;12.42;57.37
73870;BME280;64924;42.140;24.762;2024-02-28T07:28:43;100375.34;;;12.92;55.20
73870;BME280;64924;42.140;24.762;2024-02-28T07:31:18;100389.38;;;13.53;53.70
73870;BME280;64924;42.140;24.762;2024-02-28T07:33:44;100386.16;;;13.98;52.42
73870;BME280;64924;42.140;24.762;2024-02-28T07:36:09;100388.78;;;14.54;51.13
73870;BME280;64924;42.140;24.762;2024-02-28T07:38:35;100387.94;;;15.21;49.30
73870;BME280;64924;42.140;24.762;2024-02-28T07:41:01;100377.66;;;15.69;48.44
73870;BME280;64924;42.140;24.762;2024-02-28T07:43:27;100376.94;;;16.27;46.86
73870;BME280;64924;42.140;24.762;2024-02-28T07:45:53;100374.44;;;16.77;45.21
73870;BME280;64924;42.140;24.762;2024-02-28T07:48:19;100378.00;;;17.15;44.22
73870;BME280;64924;42.140;24.762;2024-02-28T07:50:45;100378.59;;;17.49;43.41
73870;BME280;64924;42.140;24.762;2024-02-28T07:53:11;100373.63;;;17.64;42.76
73870;BME280;64924;42.140;24.762;2024-02-28T07:55:37;100375.72;;;17.93;42.38
73870;BME280;64924;42.140;24.762;2024-02-28T07:58:04;100360.72;;;17.71;42.47
73870;BME280;64924;42.140;24.762;2024-02-28T08:00:31;100354.09;;;17.47;42.91
73870;BME280;64924;42.140;24.762;2024-02-28T08:02:58;100353.03;;;17.98;42.15
73870;BME280;64924;42.140;24.762;2024-02-28T08:05:23;100351.91;;;18.42;40.64
73870;BME280;64924;42.140;24.762;2024-02-28T08:07:49;100316.91;;;18.49;39.91
73870;BME280;64924;42.140;24.762;2024-02-28T08:10:14;100357.81;;;18.94;39.39
73870;BME280;64924;42.140;24.762;2024-02-28T08:12:40;100352.47;;;19.11;38.45
73870;BME280;64924;42.140;24.762;2024-02-28T08:15:05;100367.16;;;18.93;38.84
73870;BME280;64924;42.140;24.762;2024-02-28T08:17:31;100356.41;;;19.03;39.27
73870;BME280;64924;42.140;24.762;2024-02-28T08:19:56;100346.00;;;19.05;38.89
73870;BME280;64924;42.140;24.762;2024-02-28T08:22:22;100352.19;;;18.89;39.63
73870;BME280;64924;42.140;24.762;2024-02-28T08:24:53;100357.84;;;18.76;39.81
73870;BME280;64924;42.140;24.762;2024-02-28T08:27:18;100312.47;;;18.30;40.96
73870;BME280;64924;42.140;24.762;2024-02-28T08:29:44;100351.81;;;18.97;39.63
73870;BME280;64924;42.140;24.762;2024-02-28T08:32:10;100343.34;;;18.50;40.41
73870;BME280;64924;42.140;24.762;2024-02-28T08:34:36;100339.59;;;18.45;40.54
73870;BME280;64924;42.140;24.762;2024-02-28T08:37:02;100317.50;;;18.51;40.34
73870;BME280;64924;42.140;24.762;2024-02-28T08:39:27;100354.81;;;18.65;40.46
73870;BME280;64924;42.140;24.762;2024-02-28T08:41:53;100344.69;;;18.78;40.24
73870;BME280;64924;42.140;24.762;2024-02-28T08:44:18;100355.56;;;19.02;39.82
73870;BME280;64924;42.140;24.762;2024-02-28T08:46:46;100351.69;;;19.33;39.31
73870;BME280;64924;42.140;24.762;2024-02-28T08:49:13;100357.09;;;19.40;39.47
73870;BME280;64924;42.140;24.762;2024-02-28T08:51:39;100360.75;;;18.81;40.23
73870;BME280;64924;42.140;24.762;2024-02-28T08:54:05;100344.53;;;18.91;40.35
73870;BME280;64924;42.140;24.762;2024-02-28T08:56:31;100309.22;;;18.99;39.84
73870;BME280;64924;42.140;24.762;2024-02-28T08:58:56;100335.41;;;19.32;39.55
73870;BME280;64924;42.140;24.762;2024-02-28T09:01:22;100347.81;;;19.53;39.24
73870;BME280;64924;42.140;24.762;2024-02-28T09:03:47;100349.50;;;19.54;39.35
73870;BME280;64924;42.140;24.762;2024-02-28T09:06:13;100349.78;;;19.22;39.88
73870;BME280;64924;42.140;24.762;2024-02-28T09:08:39;100349.66;;;18.87;40.76
73870;BME280;64924;42.140;24.762;2024-02-28T09:11:08;100352.72;;;19.09;40.03
73870;BME280;64924;42.140;24.762;2024-02-28T09:13:33;100343.09;;;19.00;40.57
73870;BME280;64924;42.140;24.762;2024-02-28T09:16:01;100344.63;;;18.84;40.75
73870;BME280;64924;42.140;24.762;2024-02-28T09:18:26;100346.38;;;18.79;40.94
73870;BME280;64924;42.140;24.762;2024-02-28T09:20:52;100338.19;;;19.02;40.83
73870;BME280;64924;42.140;24.762;2024-02-28T09:23:18;100341.16;;;18.89;41.03
73870;BME280;64924;42.140;24.762;2024-02-28T09:25:43;100328.63;;;18.93;40.67
73870;BME280;64924;42.140;24.762;2024-02-28T09:28:09;100329.31;;;18.88;40.74
73870;BME280;64924;42.140;24.762;2024-02-28T09:30:38;100339.88;;;18.91;40.96
73870;BME280;64924;42.140;24.762;2024-02-28T09:33:04;100329.53;;;18.87;41.00
73870;BME280;64924;42.140;24.762;2024-02-28T09:35:29;100320.84;;;18.72;41.32
73870;BME280;64924;42.140;24.762;2024-02-28T09:37:55;100290.19;;;18.68;41.30
73870;BME280;64924;42.140;24.762;2024-02-28T09:40:20;100290.13;;;18.56;41.33
73870;BME280;64924;42.140;24.762;2024-02-28T09:42:52;100317.84;;;19.03;41.39
73870;BME280;64924;42.140;24.762;2024-02-28T09:45:21;100313.19;;;18.74;41.33
73870;BME280;64924;42.140;24.762;2024-02-28T09:47:47;100313.13;;;18.62;41.76
73870;BME280;64924;42.140;24.762;2024-02-28T09:50:13;100309.09;;;18.64;41.78
73870;BME280;64924;42.140;24.762;2024-02-28T09:52:39;100304.69;;;18.09;42.84
73870;BME280;64924;42.140;24.762;2024-02-28T09:55:05;100298.88;;;17.80;43.85
73870;BME280;64924;42.140;24.762;2024-02-28T09:57:32;100299.19;;;17.72;44.04
73870;BME280;64924;42.140;24.762;2024-02-28T10:00:00;100294.47;;;17.29;44.83
73870;BME280;64924;42.140;24.762;2024-02-28T10:02:26;100294.38;;;17.11;45.57
73870;BME280;64924;42.140;24.762;2024-02-28T10:04:53;100290.03;;;17.28;45.55
73870;BME280;64924;42.140;24.762;2024-02-28T10:07:21;100286.94;;;16.93;45.85
73870;BME280;64924;42.140;24.762;2024-02-28T10:09:47;100283.25;;;16.75;46.65
73870;BME280;64924;42.140;24.762;2024-02-28T10:12:12;100276.63;;;16.89;46.21
73870;BME280;64924;42.140;24.762;2024-02-28T10:14:38;100240.25;;;16.68;46.15
73870;BME280;64924;42.140;24.762;2024-02-28T10:17:04;100282.78;;;17.09;46.01
73870;BME280;64924;42.140;24.762;2024-02-28T10:19:30;100283.31;;;17.24;45.43
73870;BME280;64924;42.140;24.762;2024-02-28T10:21:56;100260.69;;;17.04;45.81
73870;BME280;64924;42.140;24.762;2024-02-28T10:24:24;100266.88;;;16.93;46.52
73870;BME280;64924;42.140;24.762;2024-02-28T10:26:49;100248.50;;;16.93;46.33
73870;BME280;64924;42.140;24.762;2024-02-28T10:29:24;100258.03;;;17.41;45.47
73870;BME280;64924;42.140;24.762;2024-02-28T10:31:56;100223.56;;;17.45;45.45
73870;BME280;64924;42.140;24.762;2024-02-28T10:34:22;100247.28;;;17.57;44.88
73870;BME280;64924;42.140;24.762;2024-02-28T10:36:48;100253.34;;;17.66;44.84
73870;BME280;64924;42.140;24.762;2024-02-28T10:39:14;100253.78;;;17.45;45.32
73870;BME280;64924;42.140;24.762;2024-02-28T10:41:41;100247.25;;;17.14;46.08
73870;BME280;64924;42.140;24.762;2024-02-28T10:44:07;100243.06;;;16.87;46.57
73870;BME280;64924;42.140;24.762;2024-02-28T10:46:34;100233.84;;;16.75;47.25
73870;BME280;64924;42.140;24.762;2024-02-28T10:49:00;100221.88;;;16.62;47.07
73870;BME280;64924;42.140;24.762;2024-02-28T10:51:26;100212.88;;;16.87;46.97
73870;BME280;64924;42.140;24.762;2024-02-28T10:54:21;100232.16;;;17.05;46.57
73870;BME280;64924;42.140;24.762;2024-02-28T10:56:46;100223.69;;;17.07;46.46
73870;BME280;64924;42.140;24.762;2024-02-28T10:59:14;100183.13;;;16.84;46.55
73870;BME280;64924;42.140;24.762;2024-02-28T11:01:43;100189.28;;;17.04;45.96
73870;BME280;64924;42.140;24.762;2024-02-28T11:04:10;100177.16;;;17.12;45.87
73870;BME280;64924;42.140;24.762;2024-02-28T11:06:49;100207.63;;;17.28;46.04
73870;BME280;64924;42.140;24.762;2024-02-28T11:09:25;100203.03;;;17.22;46.06
73870;BME280;64924;42.140;24.762;2024-02-28T11:11:52;100203.81;;;17.29;46.09
73870;BME280;64924;42.140;24.762;2024-02-28T11:14:18;100194.22;;;17.38;45.91
73870;BME280;64924;42.140;24.762;2024-02-28T11:17:04;100194.06;;;17.52;45.60
73870;BME280;64924;42.140;24.762;2024-02-28T11:19:32;100188.28;;;17.42;45.50
73870;BME280;64924;42.140;24.762;2024-02-28T11:22:01;100170.97;;;17.41;45.39
73870;BME280;64924;42.140;24.762;2024-02-28T11:24:33;100191.88;;;17.60;45.23
73870;BME280;64924;42.140;24.762;2024-02-28T11:27:00;100170.88;;;17.48;45.09
73870;BME280;64924;42.140;24.762;2024-02-28T11:29:26;100153.16;;;17.25;45.35
73870;BME280;64924;42.140;24.762;2024-02-28T11:31:54;100186.41;;;17.17;45.85
73870;BME280;64924;42.140;24.762;2024-02-28T11:34:19;100167.78;;;17.01;46.18
73870;BME280;64924;42.140;24.762;2024-02-28T11:36:49;100177.56;;;17.15;45.99
73870;BME280;64924;42.140;24.762;2024-02-28T11:39:16;100164.06;;;16.89;46.14
73870;BME280;64924;42.140;24.762;2024-02-28T11:41:43;100165.31;;;16.93;46.04
73870;BME280;64924;42.140;24.762;2024-02-28T11:44:15;100135.00;;;16.81;46.29
73870;BME280;64924;42.140;24.762;2024-02-28T11:46:44;100147.97;;;17.17;45.37
73870;BME280;64924;42.140;24.762;2024-02-28T11:49:11;100158.22;;;17.28;44.97
73870;BME280;64924;42.140;24.762;2024-02-28T11:51:37;100147.09;;;17.42;44.85
73870;BME280;64924;42.140;24.762;2024-02-28T11:54:02;100153.19;;;17.44;44.84
73870;BME280;64924;42.140;24.762;2024-02-28T11:56:28;100135.53;;;17.51;44.89
73870;BME280;64924;42.140;24.762;2024-02-28T11:58:53;100128.41;;;17.68;43.95
73870;BME280;64924;42.140;24.762;2024-02-28T12:01:42;100105.19;;;17.94;43.39
73870;BME280;64924;42.140;24.762;2024-02-28T12:04:09;100139.97;;;18.19;43.33
73870;BME280;64924;42.140;24.762;2024-02-28T12:06:36;100139.97;;;18.19;43.02
73870;BME280;64924;42.140;24.762;2024-02-28T12:09:03;100107.81;;;18.19;42.87
73870;BME280;64924;42.140;24.762;2024-02-28T12:11:30;100129.03;;;18.42;42.42
73870;BME280;64924;42.140;24.762;2024-02-28T12:13:55;100119.31;;;18.28;42.80
73870;BME280;64924;42.140;24.762;2024-02-28T12:16:25;100117.25;;;18.23;43.33
73870;BME280;64924;42.140;24.762;2024-02-28T12:18:51;100122.50;;;18.13;43.61
73870;BME280;64924;42.140;24.762;2024-02-28T12:21:17;100117.47;;;17.80;44.25
73870;BME280;64924;42.140;24.762;2024-02-28T12:23:43;100117.78;;;17.72;44.35
73870;BME280;64924;42.140;24.762;2024-02-28T12:26:08;100080.50;;;17.58;44.43
73870;BME280;64924;42.140;24.762;2024-02-28T12:28:34;100113.06;;;17.91;44.20
73870;BME280;64924;42.140;24.762;2024-02-28T12:30:59;100108.16;;;17.81;44.09
73870;BME280;64924;42.140;24.762;2024-02-28T12:33:25;100111.38;;;17.78;44.39
73870;BME280;64924;42.140;24.762;2024-02-28T12:35:50;100100.84;;;17.75;44.56
73870;BME280;64924;42.140;24.762;2024-02-28T12:38:16;100103.97;;;17.90;44.42
73870;BME280;64924;42.140;24.762;2024-02-28T12:40:42;100102.03;;;18.09;43.99